Aérodrome :
LOGIN :

S'inscrire | Disclaimer

   EN    FR    IT 

 










Légende :    VFR   VFR Marginal   IFR   IFR Intensif   IFR Très Intensif
Visi : 
Plafond : 
>= 8 km
>= 3000ft
5 à 8 km
1000 à 3000 ft
1500m à 5 km
500 à 1000 ft
800 à 1500m
200 à 500 ft
< 800m
< 200 ft
Symboles :   Orages  Brouillard  Fortes neiges  Fortes précipitations  Vent > 20 kt
SIGMETs :   Divers  Orages  Givrage  Turbulence  Onde Orograph.  Cendres Volcan.






- Altitude de l'aérodrome : 510 ft


LJCE - Cerklje

DERNIER METAR :
  • 280700Z VRB02KT 0200 FG VV002 01/01 Q1009 RMK RED

METARs EXPIRÉS :
  • 280630Z 00000KT 0200 FG VV002 01/01 Q1008 RMK RED
  • 280600Z 00000KT 0200 FG VV002 01/01 Q1009 RMK RED
  • 280530Z AUTO 22001KT 0100 R09///// FG VV003 01/01 Q1009
  • 280500Z AUTO 00000KT 0150 R09/0600N FG VV002 01/01 Q1009
  • 280430Z AUTO VRB01KT 0250 R09/0900D FG VV002 02/01 Q1009

TAF TAF LJCE
Valide du 28 à 06h jusqu'au 28 à 15h UTC


280500Z 2806/2815 VRB02KT 0200 VV002
BECMG 2806/2808 3500 BR OVC008
BECMG 2808/2811 26008KT 9999 NSW FEW010 BKN035
PROB40
TEMPO 2808/2815 -RA



MET'MAP, la Météo Aéronautique d'un coup d'oeil ! - Copyright ORBIFLY Décembre 2007 - Disclaimer

ORBIFLY MET'MAP TEAM :

Programmation & Développement : Alexandra Zaïnal
Sur une idée originale de : Baudouin d'Aumeries
Assistance à la programmation : Marc-Olivier Méhu
Soutien technique & logistique : Manuel Goepfert

Contact : metmap@orbifly.com




SOURCES & CREDITS :

   NOAA